sensor_id;sensor_type;location;lat;lon;timestamp;P1;durP1;ratioP1;P2;durP2;ratioP2
53207;SDS011;39093;52.788;6.940;2023-09-12T00:00:45;46.88;;;36.20;;
53207;SDS011;39093;52.788;6.940;2023-09-12T00:03:13;43.88;;;33.03;;
53207;SDS011;39093;52.788;6.940;2023-09-12T00:05:40;41.15;;;34.25;;
53207;SDS011;39093;52.788;6.940;2023-09-12T00:08:07;36.17;;;31.80;;
53207;SDS011;39093;52.788;6.940;2023-09-12T00:10:37;44.47;;;34.83;;
53207;SDS011;39093;52.788;6.940;2023-09-12T00:13:04;40.17;;;33.80;;
53207;SDS011;39093;52.788;6.940;2023-09-12T00:15:31;45.50;;;34.85;;
53207;SDS011;39093;52.788;6.940;2023-09-12T00:17:58;48.92;;;36.08;;
53207;SDS011;39093;52.788;6.940;2023-09-12T00:20:25;43.63;;;35.90;;
53207;SDS011;39093;52.788;6.940;2023-09-12T00:22:51;44.15;;;35.17;;
53207;SDS011;39093;52.788;6.940;2023-09-12T00:25:21;49.15;;;36.42;;
53207;SDS011;39093;52.788;6.940;2023-09-12T00:27:48;49.58;;;35.78;;
53207;SDS011;39093;52.788;6.940;2023-09-12T00:30:14;47.67;;;36.45;;
53207;SDS011;39093;52.788;6.940;2023-09-12T00:32:42;52.00;;;37.28;;
53207;SDS011;39093;52.788;6.940;2023-09-12T00:35:08;49.38;;;36.92;;
53207;SDS011;39093;52.788;6.940;2023-09-12T00:37:35;41.85;;;35.10;;
53207;SDS011;39093;52.788;6.940;2023-09-12T00:40:02;43.22;;;35.35;;
53207;SDS011;39093;52.788;6.940;2023-09-12T00:42:30;51.42;;;35.78;;
53207;SDS011;39093;52.788;6.940;2023-09-12T00:44:57;60.70;;;42.20;;
53207;SDS011;39093;52.788;6.940;2023-09-12T00:47:24;53.95;;;40.20;;
53207;SDS011;39093;52.788;6.940;2023-09-12T00:49:53;60.33;;;42.65;;
53207;SDS011;39093;52.788;6.940;2023-09-12T00:52:22;60.65;;;42.22;;
53207;SDS011;39093;52.788;6.940;2023-09-12T00:54:51;64.97;;;43.95;;
53207;SDS011;39093;52.788;6.940;2023-09-12T00:57:19;60.38;;;42.50;;
53207;SDS011;39093;52.788;6.940;2023-09-12T00:59:47;67.38;;;46.92;;
53207;SDS011;39093;52.788;6.940;2023-09-12T01:02:15;69.00;;;47.33;;
53207;SDS011;39093;52.788;6.940;2023-09-12T01:04:42;64.13;;;43.33;;
53207;SDS011;39093;52.788;6.940;2023-09-12T01:07:10;70.35;;;45.83;;
53207;SDS011;39093;52.788;6.940;2023-09-12T01:09:37;53.63;;;39.47;;
53207;SDS011;39093;52.788;6.940;2023-09-12T01:12:04;77.55;;;47.63;;
53207;SDS011;39093;52.788;6.940;2023-09-12T01:14:31;69.65;;;49.42;;
53207;SDS011;39093;52.788;6.940;2023-09-12T01:16:58;83.18;;;50.78;;
53207;SDS011;39093;52.788;6.940;2023-09-12T01:19:27;70.40;;;48.05;;
53207;SDS011;39093;52.788;6.940;2023-09-12T01:29:49;73.32;;;46.97;;
53207;SDS011;39093;52.788;6.940;2023-09-12T01:32:21;70.32;;;47.42;;
53207;SDS011;39093;52.788;6.940;2023-09-12T01:34:48;66.22;;;46.17;;
53207;SDS011;39093;52.788;6.940;2023-09-12T01:37:15;67.93;;;46.13;;
53207;SDS011;39093;52.788;6.940;2023-09-12T01:39:42;55.65;;;41.33;;
53207;SDS011;39093;52.788;6.940;2023-09-12T01:42:13;66.40;;;44.85;;
53207;SDS011;39093;52.788;6.940;2023-09-12T01:44:43;70.07;;;45.30;;
53207;SDS011;39093;52.788;6.940;2023-09-12T01:47:11;63.65;;;43.83;;
53207;SDS011;39093;52.788;6.940;2023-09-12T01:49:44;58.20;;;43.80;;
53207;SDS011;39093;52.788;6.940;2023-09-12T01:52:14;62.42;;;44.70;;
53207;SDS011;39093;52.788;6.940;2023-09-12T01:54:41;60.35;;;44.67;;
53207;SDS011;39093;52.788;6.940;2023-09-12T01:57:10;63.53;;;44.88;;
53207;SDS011;39093;52.788;6.940;2023-09-12T01:59:39;58.80;;;42.88;;
53207;SDS011;39093;52.788;6.940;2023-09-12T02:02:06;61.78;;;45.65;;
53207;SDS011;39093;52.788;6.940;2023-09-12T02:04:33;59.38;;;44.33;;
53207;SDS011;39093;52.788;6.940;2023-09-12T02:07:00;50.60;;;40.60;;
53207;SDS011;39093;52.788;6.940;2023-09-12T02:09:27;61.72;;;44.92;;
53207;SDS011;39093;52.788;6.940;2023-09-12T02:11:54;63.58;;;44.15;;
53207;SDS011;39093;52.788;6.940;2023-09-12T02:14:21;55.15;;;43.08;;
53207;SDS011;39093;52.788;6.940;2023-09-12T02:16:48;55.60;;;42.40;;
53207;SDS011;39093;52.788;6.940;2023-09-12T02:19:15;60.30;;;45.67;;
53207;SDS011;39093;52.788;6.940;2023-09-12T02:21:42;58.70;;;44.22;;
53207;SDS011;39093;52.788;6.940;2023-09-12T02:24:09;59.70;;;43.80;;
53207;SDS011;39093;52.788;6.940;2023-09-12T02:26:36;70.38;;;43.35;;
53207;SDS011;39093;52.788;6.940;2023-09-12T02:29:06;55.90;;;42.92;;
53207;SDS011;39093;52.788;6.940;2023-09-12T02:31:33;56.38;;;43.15;;
53207;SDS011;39093;52.788;6.940;2023-09-12T02:34:00;58.70;;;44.63;;
53207;SDS011;39093;52.788;6.940;2023-09-12T02:36:28;61.03;;;44.60;;
53207;SDS011;39093;52.788;6.940;2023-09-12T02:38:55;56.13;;;42.28;;
53207;SDS011;39093;52.788;6.940;2023-09-12T02:41:22;58.30;;;43.65;;
53207;SDS011;39093;52.788;6.940;2023-09-12T02:43:49;60.28;;;44.15;;
53207;SDS011;39093;52.788;6.940;2023-09-12T02:46:16;58.95;;;42.92;;
53207;SDS011;39093;52.788;6.940;2023-09-12T02:48:42;60.65;;;42.17;;
53207;SDS011;39093;52.788;6.940;2023-09-12T02:51:11;53.65;;;38.55;;
53207;SDS011;39093;52.788;6.940;2023-09-12T02:53:38;64.72;;;44.17;;
53207;SDS011;39093;52.788;6.940;2023-09-12T02:56:05;61.92;;;43.90;;
53207;SDS011;39093;52.788;6.940;2023-09-12T02:58:32;56.13;;;42.65;;
53207;SDS011;39093;52.788;6.940;2023-09-12T03:00:58;57.70;;;43.47;;
53207;SDS011;39093;52.788;6.940;2023-09-12T03:03:26;62.47;;;43.90;;
53207;SDS011;39093;52.788;6.940;2023-09-12T03:05:59;68.28;;;46.22;;
53207;SDS011;39093;52.788;6.940;2023-09-12T03:08:28;60.47;;;44.65;;
53207;SDS011;39093;52.788;6.940;2023-09-12T03:10:55;59.85;;;43.90;;
53207;SDS011;39093;52.788;6.940;2023-09-12T03:13:24;64.50;;;43.13;;
53207;SDS011;39093;52.788;6.940;2023-09-12T03:15:51;62.75;;;43.13;;
53207;SDS011;39093;52.788;6.940;2023-09-12T03:18:19;56.85;;;41.63;;
53207;SDS011;39093;52.788;6.940;2023-09-12T03:20:46;59.05;;;42.80;;
53207;SDS011;39093;52.788;6.940;2023-09-12T03:23:13;61.90;;;43.47;;
53207;SDS011;39093;52.788;6.940;2023-09-12T03:25:40;53.40;;;41.08;;
53207;SDS011;39093;52.788;6.940;2023-09-12T03:28:07;57.13;;;41.00;;
53207;SDS011;39093;52.788;6.940;2023-09-12T03:30:35;55.08;;;41.08;;
53207;SDS011;39093;52.788;6.940;2023-09-12T03:33:03;53.28;;;41.53;;
53207;SDS011;39093;52.788;6.940;2023-09-12T03:35:32;56.53;;;42.00;;
53207;SDS011;39093;52.788;6.940;2023-09-12T03:37:59;65.80;;;41.65;;
53207;SDS011;39093;52.788;6.940;2023-09-12T03:40:30;92.72;;;42.30;;
53207;SDS011;39093;52.788;6.940;2023-09-12T03:42:58;87.68;;;40.35;;
53207;SDS011;39093;52.788;6.940;2023-09-12T03:45:25;64.00;;;41.47;;
53207;SDS011;39093;52.788;6.940;2023-09-12T03:47:52;104.40;;;38.33;;
53207;SDS011;39093;52.788;6.940;2023-09-12T03:50:19;72.53;;;36.92;;
53207;SDS011;39093;52.788;6.940;2023-09-12T03:52:46;109.80;;;38.63;;
53207;SDS011;39093;52.788;6.940;2023-09-12T03:55:13;187.52;;;38.40;;
53207;SDS011;39093;52.788;6.940;2023-09-12T03:57:40;117.47;;;38.17;;
53207;SDS011;39093;52.788;6.940;2023-09-12T04:00:07;58.22;;;38.03;;
53207;SDS011;39093;52.788;6.940;2023-09-12T04:02:35;165.23;;;38.83;;
53207;SDS011;39093;52.788;6.940;2023-09-12T04:05:02;156.88;;;36.33;;
53207;SDS011;39093;52.788;6.940;2023-09-12T04:07:29;55.22;;;36.33;;
53207;SDS011;39093;52.788;6.940;2023-09-12T04:09:56;47.42;;;34.83;;
53207;SDS011;39093;52.788;6.940;2023-09-12T04:12:23;57.35;;;37.85;;
53207;SDS011;39093;52.788;6.940;2023-09-12T04:14:50;68.20;;;38.40;;
53207;SDS011;39093;52.788;6.940;2023-09-12T04:17:18;64.53;;;36.53;;
53207;SDS011;39093;52.788;6.940;2023-09-12T04:19:45;67.97;;;38.25;;
53207;SDS011;39093;52.788;6.940;2023-09-12T04:22:15;47.33;;;35.78;;
53207;SDS011;39093;52.788;6.940;2023-09-12T04:24:42;58.55;;;37.75;;
53207;SDS011;39093;52.788;6.940;2023-09-12T04:27:09;63.97;;;39.47;;
53207;SDS011;39093;52.788;6.940;2023-09-12T04:29:36;68.82;;;39.10;;
53207;SDS011;39093;52.788;6.940;2023-09-12T04:32:03;52.72;;;37.75;;
53207;SDS011;39093;52.788;6.940;2023-09-12T04:34:31;49.88;;;33.08;;
53207;SDS011;39093;52.788;6.940;2023-09-12T04:36:58;51.15;;;32.30;;
53207;SDS011;39093;52.788;6.940;2023-09-12T04:39:25;63.90;;;32.60;;
53207;SDS011;39093;52.788;6.940;2023-09-12T04:41:52;86.55;;;38.28;;
53207;SDS011;39093;52.788;6.940;2023-09-12T04:44:19;37.05;;;32.72;;
53207;SDS011;39093;52.788;6.940;2023-09-12T04:46:46;66.93;;;33.35;;
53207;SDS011;39093;52.788;6.940;2023-09-12T04:49:13;119.63;;;31.48;;
53207;SDS011;39093;52.788;6.940;2023-09-12T04:51:40;36.65;;;32.75;;
53207;SDS011;39093;52.788;6.940;2023-09-12T04:54:09;37.35;;;33.08;;
53207;SDS011;39093;52.788;6.940;2023-09-12T04:56:36;51.47;;;34.65;;
53207;SDS011;39093;52.788;6.940;2023-09-12T04:59:02;40.00;;;34.28;;
53207;SDS011;39093;52.788;6.940;2023-09-12T05:01:29;43.97;;;35.95;;
53207;SDS011;39093;52.788;6.940;2023-09-12T05:03:57;62.13;;;33.33;;
53207;SDS011;39093;52.788;6.940;2023-09-12T05:06:24;40.33;;;35.88;;
53207;SDS011;39093;52.788;6.940;2023-09-12T05:08:51;51.15;;;37.15;;
53207;SDS011;39093;52.788;6.940;2023-09-12T05:11:17;53.60;;;38.10;;
53207;SDS011;39093;52.788;6.940;2023-09-12T05:13:44;37.97;;;34.03;;
53207;SDS011;39093;52.788;6.940;2023-09-12T05:16:11;52.85;;;35.30;;
53207;SDS011;39093;52.788;6.940;2023-09-12T05:18:38;40.00;;;35.53;;
53207;SDS011;39093;52.788;6.940;2023-09-12T05:21:06;91.13;;;35.05;;
53207;SDS011;39093;52.788;6.940;2023-09-12T05:23:33;42.75;;;31.58;;
53207;SDS011;39093;52.788;6.940;2023-09-12T05:26:00;47.88;;;37.20;;
53207;SDS011;39093;52.788;6.940;2023-09-12T05:28:27;42.20;;;33.53;;
53207;SDS011;39093;52.788;6.940;2023-09-12T05:30:54;45.83;;;34.65;;
53207;SDS011;39093;52.788;6.940;2023-09-12T05:33:21;42.83;;;35.90;;
53207;SDS011;39093;52.788;6.940;2023-09-12T05:35:48;49.67;;;38.10;;
53207;SDS011;39093;52.788;6.940;2023-09-12T05:38:14;51.20;;;37.15;;
53207;SDS011;39093;52.788;6.940;2023-09-12T05:40:41;49.00;;;38.42;;
53207;SDS011;39093;52.788;6.940;2023-09-12T05:43:08;49.40;;;36.53;;
53207;SDS011;39093;52.788;6.940;2023-09-12T05:45:35;48.85;;;39.22;;
53207;SDS011;39093;52.788;6.940;2023-09-12T05:48:02;53.03;;;39.55;;
53207;SDS011;39093;52.788;6.940;2023-09-12T05:50:29;56.58;;;39.30;;
53207;SDS011;39093;52.788;6.940;2023-09-12T05:52:56;49.00;;;37.92;;
53207;SDS011;39093;52.788;6.940;2023-09-12T05:55:23;78.53;;;37.65;;
53207;SDS011;39093;52.788;6.940;2023-09-12T05:57:51;53.67;;;36.83;;
53207;SDS011;39093;52.788;6.940;2023-09-12T06:00:19;54.58;;;39.35;;
53207;SDS011;39093;52.788;6.940;2023-09-12T06:02:47;60.40;;;40.97;;
53207;SDS011;39093;52.788;6.940;2023-09-12T06:05:15;83.20;;;40.55;;
53207;SDS011;39093;52.788;6.940;2023-09-12T06:07:42;48.25;;;35.90;;
53207;SDS011;39093;52.788;6.940;2023-09-12T06:10:09;68.55;;;35.45;;
53207;SDS011;39093;52.788;6.940;2023-09-12T06:12:36;51.30;;;36.63;;
53207;SDS011;39093;52.788;6.940;2023-09-12T06:15:04;47.47;;;36.30;;
53207;SDS011;39093;52.788;6.940;2023-09-12T06:17:31;48.15;;;34.97;;
53207;SDS011;39093;52.788;6.940;2023-09-12T06:19:58;53.60;;;36.05;;
53207;SDS011;39093;52.788;6.940;2023-09-12T06:22:25;47.47;;;37.40;;
53207;SDS011;39093;52.788;6.940;2023-09-12T06:24:52;45.78;;;32.50;;
53207;SDS011;39093;52.788;6.940;2023-09-12T06:27:19;47.60;;;35.25;;
53207;SDS011;39093;52.788;6.940;2023-09-12T06:29:47;50.33;;;38.08;;
53207;SDS011;39093;52.788;6.940;2023-09-12T06:32:17;48.35;;;36.50;;
53207;SDS011;39093;52.788;6.940;2023-09-12T06:34:44;48.13;;;37.17;;
53207;SDS011;39093;52.788;6.940;2023-09-12T06:37:12;47.90;;;35.60;;
53207;SDS011;39093;52.788;6.940;2023-09-12T06:39:39;46.45;;;36.60;;
53207;SDS011;39093;52.788;6.940;2023-09-12T06:42:06;47.42;;;37.08;;
53207;SDS011;39093;52.788;6.940;2023-09-12T06:44:33;50.45;;;38.63;;
53207;SDS011;39093;52.788;6.940;2023-09-12T06:47:00;56.03;;;38.75;;
53207;SDS011;39093;52.788;6.940;2023-09-12T06:49:29;66.05;;;42.33;;
53207;SDS011;39093;52.788;6.940;2023-09-12T06:52:00;60.67;;;41.55;;
53207;SDS011;39093;52.788;6.940;2023-09-12T06:54:28;62.35;;;41.42;;
53207;SDS011;39093;52.788;6.940;2023-09-12T06:56:55;54.70;;;40.20;;
53207;SDS011;39093;52.788;6.940;2023-09-12T06:59:21;60.17;;;40.65;;
53207;SDS011;39093;52.788;6.940;2023-09-12T07:01:48;50.60;;;37.00;;
53207;SDS011;39093;52.788;6.940;2023-09-12T07:04:15;55.50;;;38.78;;
53207;SDS011;39093;52.788;6.940;2023-09-12T07:06:42;54.58;;;37.65;;
53207;SDS011;39093;52.788;6.940;2023-09-12T07:09:09;55.08;;;38.47;;
53207;SDS011;39093;52.788;6.940;2023-09-12T07:11:41;60.45;;;39.28;;
53207;SDS011;39093;52.788;6.940;2023-09-12T07:14:08;56.35;;;38.80;;
53207;SDS011;39093;52.788;6.940;2023-09-12T07:16:36;62.05;;;42.00;;
53207;SDS011;39093;52.788;6.940;2023-09-12T07:19:03;63.35;;;43.83;;
53207;SDS011;39093;52.788;6.940;2023-09-12T07:21:31;64.80;;;44.15;;
53207;SDS011;39093;52.788;6.940;2023-09-12T07:23:58;71.40;;;46.03;;
53207;SDS011;39093;52.788;6.940;2023-09-12T07:26:25;62.13;;;42.85;;
53207;SDS011;39093;52.788;6.940;2023-09-12T07:28:54;60.15;;;42.28;;
53207;SDS011;39093;52.788;6.940;2023-09-12T07:31:21;57.28;;;39.95;;
53207;SDS011;39093;52.788;6.940;2023-09-12T07:33:48;61.38;;;42.08;;
53207;SDS011;39093;52.788;6.940;2023-09-12T07:36:15;58.00;;;40.72;;
53207;SDS011;39093;52.788;6.940;2023-09-12T07:38:42;59.28;;;40.80;;
53207;SDS011;39093;52.788;6.940;2023-09-12T07:41:11;56.17;;;38.30;;
53207;SDS011;39093;52.788;6.940;2023-09-12T07:43:38;57.47;;;40.88;;
53207;SDS011;39093;52.788;6.940;2023-09-12T07:46:07;51.17;;;38.13;;
53207;SDS011;39093;52.788;6.940;2023-09-12T07:48:34;49.65;;;35.72;;
53207;SDS011;39093;52.788;6.940;2023-09-12T07:51:01;47.25;;;33.97;;
53207;SDS011;39093;52.788;6.940;2023-09-12T07:53:28;44.65;;;33.88;;
53207;SDS011;39093;52.788;6.940;2023-09-12T07:55:58;41.42;;;33.17;;
53207;SDS011;39093;52.788;6.940;2023-09-12T07:58:26;47.50;;;34.47;;
53207;SDS011;39093;52.788;6.940;2023-09-12T08:00:52;43.28;;;33.60;;
53207;SDS011;39093;52.788;6.940;2023-09-12T08:03:19;49.30;;;34.53;;
53207;SDS011;39093;52.788;6.940;2023-09-12T08:05:56;53.30;;;36.95;;
53207;SDS011;39093;52.788;6.940;2023-09-12T08:08:24;54.78;;;38.05;;
53207;SDS011;39093;52.788;6.940;2023-09-12T08:10:51;56.35;;;36.78;;
53207;SDS011;39093;52.788;6.940;2023-09-12T08:13:18;54.38;;;37.33;;
53207;SDS011;39093;52.788;6.940;2023-09-12T08:15:45;46.67;;;34.28;;
53207;SDS011;39093;52.788;6.940;2023-09-12T08:18:12;50.25;;;35.63;;
53207;SDS011;39093;52.788;6.940;2023-09-12T08:20:39;51.83;;;36.90;;
53207;SDS011;39093;52.788;6.940;2023-09-12T08:23:05;48.50;;;35.60;;
53207;SDS011;39093;52.788;6.940;2023-09-12T08:25:32;45.35;;;33.05;;
53207;SDS011;39093;52.788;6.940;2023-09-12T08:27:59;49.17;;;34.58;;
53207;SDS011;39093;52.788;6.940;2023-09-12T08:30:26;50.65;;;34.05;;
53207;SDS011;39093;52.788;6.940;2023-09-12T08:32:55;51.38;;;35.58;;
53207;SDS011;39093;52.788;6.940;2023-09-12T08:35:23;56.78;;;37.60;;
53207;SDS011;39093;52.788;6.940;2023-09-12T08:37:49;51.03;;;35.97;;
53207;SDS011;39093;52.788;6.940;2023-09-12T08:40:16;46.08;;;32.78;;
53207;SDS011;39093;52.788;6.940;2023-09-12T08:42:44;49.78;;;35.35;;
53207;SDS011;39093;52.788;6.940;2023-09-12T08:45:15;49.22;;;34.90;;
53207;SDS011;39093;52.788;6.940;2023-09-12T08:47:45;45.22;;;33.55;;
53207;SDS011;39093;52.788;6.940;2023-09-12T08:50:14;47.45;;;33.97;;
53207;SDS011;39093;52.788;6.940;2023-09-12T08:52:45;47.60;;;33.97;;
53207;SDS011;39093;52.788;6.940;2023-09-12T08:55:31;49.28;;;33.47;;
53207;SDS011;39093;52.788;6.940;2023-09-12T08:58:05;51.33;;;36.05;;
53207;SDS011;39093;52.788;6.940;2023-09-12T09:00:33;52.92;;;35.33;;
53207;SDS011;39093;52.788;6.940;2023-09-12T09:03:02;52.08;;;36.75;;
53207;SDS011;39093;52.788;6.940;2023-09-12T09:05:30;48.30;;;34.42;;
53207;SDS011;39093;52.788;6.940;2023-09-12T09:07:59;45.55;;;31.60;;
53207;SDS011;39093;52.788;6.940;2023-09-12T09:10:28;42.63;;;29.48;;
53207;SDS011;39093;52.788;6.940;2023-09-12T09:13:16;42.55;;;31.58;;
53207;SDS011;39093;52.788;6.940;2023-09-12T09:15:44;39.45;;;31.15;;
53207;SDS011;39093;52.788;6.940;2023-09-12T09:18:11;54.13;;;34.40;;
53207;SDS011;39093;52.788;6.940;2023-09-12T09:20:39;39.95;;;29.60;;
53207;SDS011;39093;52.788;6.940;2023-09-12T09:23:08;40.85;;;30.45;;
53207;SDS011;39093;52.788;6.940;2023-09-12T09:25:39;48.20;;;32.60;;
53207;SDS011;39093;52.788;6.940;2023-09-12T09:28:17;46.00;;;32.85;;
53207;SDS011;39093;52.788;6.940;2023-09-12T09:30:46;37.42;;;29.30;;
53207;SDS011;39093;52.788;6.940;2023-09-12T09:33:21;45.28;;;31.73;;
53207;SDS011;39093;52.788;6.940;2023-09-12T09:35:49;42.05;;;29.90;;
53207;SDS011;39093;52.788;6.940;2023-09-12T09:38:21;45.20;;;30.38;;
53207;SDS011;39093;52.788;6.940;2023-09-12T09:40:49;39.60;;;28.70;;
53207;SDS011;39093;52.788;6.940;2023-09-12T09:43:20;35.90;;;27.83;;
53207;SDS011;39093;52.788;6.940;2023-09-12T09:45:48;38.38;;;29.08;;
53207;SDS011;39093;52.788;6.940;2023-09-12T09:48:20;40.28;;;29.10;;
53207;SDS011;39093;52.788;6.940;2023-09-12T09:50:48;37.90;;;28.05;;
53207;SDS011;39093;52.788;6.940;2023-09-12T09:53:15;39.13;;;28.02;;
53207;SDS011;39093;52.788;6.940;2023-09-12T09:55:42;35.63;;;28.38;;
53207;SDS011;39093;52.788;6.940;2023-09-12T09:58:14;36.85;;;27.73;;
53207;SDS011;39093;52.788;6.940;2023-09-12T10:00:44;39.40;;;28.10;;
53207;SDS011;39093;52.788;6.940;2023-09-12T10:03:14;40.05;;;28.88;;
53207;SDS011;39093;52.788;6.940;2023-09-12T10:05:48;35.58;;;26.48;;
53207;SDS011;39093;52.788;6.940;2023-09-12T10:08:19;39.10;;;27.90;;
53207;SDS011;39093;52.788;6.940;2023-09-12T10:10:48;35.88;;;26.88;;
53207;SDS011;39093;52.788;6.940;2023-09-12T10:13:16;36.13;;;27.30;;
53207;SDS011;39093;52.788;6.940;2023-09-12T10:15:45;34.22;;;25.35;;
53207;SDS011;39093;52.788;6.940;2023-09-12T10:18:14;32.35;;;25.05;;
53207;SDS011;39093;52.788;6.940;2023-09-12T10:20:55;33.20;;;26.63;;
53207;SDS011;39093;52.788;6.940;2023-09-12T10:23:34;35.70;;;26.92;;
53207;SDS011;39093;52.788;6.940;2023-09-12T10:26:12;33.40;;;26.13;;
53207;SDS011;39093;52.788;6.940;2023-09-12T10:28:40;30.17;;;23.50;;
53207;SDS011;39093;52.788;6.940;2023-09-12T10:31:11;30.80;;;22.77;;
53207;SDS011;39093;52.788;6.940;2023-09-12T10:33:39;27.05;;;22.65;;
53207;SDS011;39093;52.788;6.940;2023-09-12T10:36:06;34.97;;;25.35;;
53207;SDS011;39093;52.788;6.940;2023-09-12T10:38:42;30.52;;;24.13;;
53207;SDS011;39093;52.788;6.940;2023-09-12T10:41:14;26.65;;;22.45;;
53207;SDS011;39093;52.788;6.940;2023-09-12T10:43:43;30.75;;;22.83;;
53207;SDS011;39093;52.788;6.940;2023-09-12T10:46:16;34.85;;;25.92;;
53207;SDS011;39093;52.788;6.940;2023-09-12T10:48:43;30.63;;;24.55;;
53207;SDS011;39093;52.788;6.940;2023-09-12T10:51:11;28.58;;;20.70;;
53207;SDS011;39093;52.788;6.940;2023-09-12T10:53:44;28.98;;;23.17;;
53207;SDS011;39093;52.788;6.940;2023-09-12T10:56:20;28.00;;;22.67;;
53207;SDS011;39093;52.788;6.940;2023-09-12T11:01:31;27.33;;;19.98;;
53207;SDS011;39093;52.788;6.940;2023-09-12T11:06:53;27.63;;;21.27;;
53207;SDS011;39093;52.788;6.940;2023-09-12T11:09:25;23.73;;;19.63;;
53207;SDS011;39093;52.788;6.940;2023-09-12T11:14:25;22.83;;;18.83;;
53207;SDS011;39093;52.788;6.940;2023-09-12T11:19:44;26.85;;;21.58;;
53207;SDS011;39093;52.788;6.940;2023-09-12T11:24:53;23.48;;;18.88;;
53207;SDS011;39093;52.788;6.940;2023-09-12T11:27:23;23.90;;;18.13;;
53207;SDS011;39093;52.788;6.940;2023-09-12T11:29:52;22.15;;;17.05;;
53207;SDS011;39093;52.788;6.940;2023-09-12T11:32:26;23.42;;;18.73;;
53207;SDS011;39093;52.788;6.940;2023-09-12T11:35:06;19.60;;;16.48;;
53207;SDS011;39093;52.788;6.940;2023-09-12T11:37:34;18.67;;;14.85;;
53207;SDS011;39093;52.788;6.940;2023-09-12T11:42:40;17.45;;;14.82;;
53207;SDS011;39093;52.788;6.940;2023-09-12T11:45:08;19.30;;;15.65;;
53207;SDS011;39093;52.788;6.940;2023-09-12T11:47:40;17.67;;;14.63;;
53207;SDS011;39093;52.788;6.940;2023-09-12T11:50:07;21.05;;;14.73;;
53207;SDS011;39093;52.788;6.940;2023-09-12T11:52:58;18.65;;;16.42;;
53207;SDS011;39093;52.788;6.940;2023-09-12T11:55:45;25.83;;;16.15;;
53207;SDS011;39093;52.788;6.940;2023-09-12T11:58:14;17.63;;;15.38;;
53207;SDS011;39093;52.788;6.940;2023-09-12T12:00:49;21.27;;;18.08;;
53207;SDS011;39093;52.788;6.940;2023-09-12T12:03:18;17.65;;;15.13;;
53207;SDS011;39093;52.788;6.940;2023-09-12T12:05:47;17.80;;;14.93;;
53207;SDS011;39093;52.788;6.940;2023-09-12T12:08:15;18.67;;;14.85;;
53207;SDS011;39093;52.788;6.940;2023-09-12T12:10:50;20.42;;;15.90;;
53207;SDS011;39093;52.788;6.940;2023-09-12T12:13:17;19.15;;;16.13;;
53207;SDS011;39093;52.788;6.940;2023-09-12T12:15:46;23.10;;;17.88;;
53207;SDS011;39093;52.788;6.940;2023-09-12T12:18:13;18.80;;;16.23;;
53207;SDS011;39093;52.788;6.940;2023-09-12T12:20:41;21.75;;;16.55;;
53207;SDS011;39093;52.788;6.940;2023-09-12T12:23:08;18.42;;;15.15;;
53207;SDS011;39093;52.788;6.940;2023-09-12T12:25:35;16.05;;;14.32;;
53207;SDS011;39093;52.788;6.940;2023-09-12T12:28:03;19.33;;;15.90;;
53207;SDS011;39093;52.788;6.940;2023-09-12T12:30:31;19.90;;;16.35;;
53207;SDS011;39093;52.788;6.940;2023-09-12T12:33:06;21.27;;;15.85;;
53207;SDS011;39093;52.788;6.940;2023-09-12T12:36:00;18.92;;;15.68;;
53207;SDS011;39093;52.788;6.940;2023-09-12T12:38:33;21.45;;;15.25;;
53207;SDS011;39093;52.788;6.940;2023-09-12T12:41:04;20.23;;;16.63;;
53207;SDS011;39093;52.788;6.940;2023-09-12T12:43:31;20.02;;;15.60;;
53207;SDS011;39093;52.788;6.940;2023-09-12T12:45:58;19.63;;;15.57;;
53207;SDS011;39093;52.788;6.940;2023-09-12T12:48:32;19.88;;;14.48;;
53207;SDS011;39093;52.788;6.940;2023-09-12T12:51:12;17.10;;;14.48;;
53207;SDS011;39093;52.788;6.940;2023-09-12T12:53:52;23.00;;;15.00;;
53207;SDS011;39093;52.788;6.940;2023-09-12T12:56:21;14.60;;;12.13;;
53207;SDS011;39093;52.788;6.940;2023-09-12T12:58:54;19.23;;;13.80;;
53207;SDS011;39093;52.788;6.940;2023-09-12T13:01:23;15.35;;;12.93;;
53207;SDS011;39093;52.788;6.940;2023-09-12T13:03:51;13.00;;;10.63;;
53207;SDS011;39093;52.788;6.940;2023-09-12T13:06:19;16.50;;;11.85;;
53207;SDS011;39093;52.788;6.940;2023-09-12T13:08:47;13.75;;;12.15;;
53207;SDS011;39093;52.788;6.940;2023-09-12T13:11:15;15.05;;;13.45;;
53207;SDS011;39093;52.788;6.940;2023-09-12T13:13:44;14.40;;;11.68;;
53207;SDS011;39093;52.788;6.940;2023-09-12T13:16:12;14.15;;;12.10;;
53207;SDS011;39093;52.788;6.940;2023-09-12T13:18:40;13.23;;;11.05;;
53207;SDS011;39093;52.788;6.940;2023-09-12T13:21:10;15.15;;;11.98;;
53207;SDS011;39093;52.788;6.940;2023-09-12T13:23:37;14.52;;;11.68;;
53207;SDS011;39093;52.788;6.940;2023-09-12T13:26:06;18.67;;;9.57;;
53207;SDS011;39093;52.788;6.940;2023-09-12T13:28:34;11.43;;;9.63;;
53207;SDS011;39093;52.788;6.940;2023-09-12T13:31:01;10.93;;;9.43;;
53207;SDS011;39093;52.788;6.940;2023-09-12T13:33:28;11.77;;;9.00;;
53207;SDS011;39093;52.788;6.940;2023-09-12T13:35:55;15.90;;;11.18;;
53207;SDS011;39093;52.788;6.940;2023-09-12T13:38:22;14.20;;;9.57;;
53207;SDS011;39093;52.788;6.940;2023-09-12T13:40:49;10.05;;;8.60;;
53207;SDS011;39093;52.788;6.940;2023-09-12T13:43:16;10.70;;;8.57;;
53207;SDS011;39093;52.788;6.940;2023-09-12T13:45:45;13.23;;;9.82;;
53207;SDS011;39093;52.788;6.940;2023-09-12T13:48:12;16.13;;;9.77;;
53207;SDS011;39093;52.788;6.940;2023-09-12T13:50:40;12.60;;;9.48;;
53207;SDS011;39093;52.788;6.940;2023-09-12T13:53:09;12.07;;;9.32;;
53207;SDS011;39093;52.788;6.940;2023-09-12T13:55:36;13.30;;;8.57;;
53207;SDS011;39093;52.788;6.940;2023-09-12T13:58:23;11.43;;;8.13;;
53207;SDS011;39093;52.788;6.940;2023-09-12T14:00:58;13.52;;;8.27;;
53207;SDS011;39093;52.788;6.940;2023-09-12T14:03:25;11.85;;;9.40;;
53207;SDS011;39093;52.788;6.940;2023-09-12T14:05:55;10.90;;;8.30;;
53207;SDS011;39093;52.788;6.940;2023-09-12T14:08:23;14.10;;;9.43;;
53207;SDS011;39093;52.788;6.940;2023-09-12T14:10:51;11.10;;;8.80;;
53207;SDS011;39093;52.788;6.940;2023-09-12T14:13:19;13.60;;;8.95;;
53207;SDS011;39093;52.788;6.940;2023-09-12T14:15:48;14.88;;;8.50;;
53207;SDS011;39093;52.788;6.940;2023-09-12T14:18:17;12.68;;;8.32;;
53207;SDS011;39093;52.788;6.940;2023-09-12T14:20:45;9.55;;;8.30;;
53207;SDS011;39093;52.788;6.940;2023-09-12T14:23:14;8.57;;;7.60;;
53207;SDS011;39093;52.788;6.940;2023-09-12T14:25:41;10.85;;;7.57;;
53207;SDS011;39093;52.788;6.940;2023-09-12T14:28:09;11.75;;;7.82;;
53207;SDS011;39093;52.788;6.940;2023-09-12T14:30:37;10.00;;;7.10;;
53207;SDS011;39093;52.788;6.940;2023-09-12T14:33:05;12.73;;;8.30;;
53207;SDS011;39093;52.788;6.940;2023-09-12T14:35:32;10.77;;;7.03;;
53207;SDS011;39093;52.788;6.940;2023-09-12T14:37:59;8.45;;;7.20;;
53207;SDS011;39093;52.788;6.940;2023-09-12T14:40:26;13.23;;;7.05;;
53207;SDS011;39093;52.788;6.940;2023-09-12T14:42:54;8.93;;;7.75;;
53207;SDS011;39093;52.788;6.940;2023-09-12T14:45:21;9.43;;;7.65;;
53207;SDS011;39093;52.788;6.940;2023-09-12T14:47:48;9.35;;;7.13;;
53207;SDS011;39093;52.788;6.940;2023-09-12T14:50:15;10.20;;;7.22;;
53207;SDS011;39093;52.788;6.940;2023-09-12T14:52:43;9.43;;;7.00;;
53207;SDS011;39093;52.788;6.940;2023-09-12T14:55:10;9.15;;;7.10;;